sensor_id;sensor_type;location;lat;lon;timestamp;pressure;altitude;pressure_sealevel;temperature;humidity
25759;BME280;13604;52.496;13.456;2024-01-30T00:01:46;102433.56;;;-0.13;98.92
25759;BME280;13604;52.496;13.456;2024-01-30T00:04:11;102473.69;;;0.10;99.02
25759;BME280;13604;52.496;13.456;2024-01-30T00:06:36;102479.56;;;0.09;99.60
25759;BME280;13604;52.496;13.456;2024-01-30T00:09:02;102481.41;;;0.03;100.00
25759;BME280;13604;52.496;13.456;2024-01-30T00:11:27;102477.94;;;-0.05;100.00
25759;BME280;13604;52.496;13.456;2024-01-30T00:13:54;102467.75;;;-0.12;100.00
25759;BME280;13604;52.496;13.456;2024-01-30T00:16:22;102500.81;;;-0.07;100.00
25759;BME280;13604;52.496;13.456;2024-01-30T00:18:52;102498.16;;;-0.23;100.00
25759;BME280;13604;52.496;13.456;2024-01-30T00:21:17;102478.41;;;-0.24;100.00
25759;BME280;13604;52.496;13.456;2024-01-30T00:23:43;102500.09;;;-0.06;100.00
25759;BME280;13604;52.496;13.456;2024-01-30T00:26:08;102494.66;;;-0.16;100.00
25759;BME280;13604;52.496;13.456;2024-01-30T00:28:33;102479.66;;;-0.13;100.00
25759;BME280;13604;52.496;13.456;2024-01-30T00:30:59;102501.75;;;-0.06;100.00
25759;BME280;13604;52.496;13.456;2024-01-30T00:33:24;102499.03;;;-0.08;100.00
25759;BME280;13604;52.496;13.456;2024-01-30T00:35:49;102452.06;;;-0.30;100.00
25759;BME280;13604;52.496;13.456;2024-01-30T00:38:15;102507.66;;;-0.14;100.00
25759;BME280;13604;52.496;13.456;2024-01-30T00:40:40;102464.88;;;-0.30;100.00
25759;BME280;13604;52.496;13.456;2024-01-30T00:43:05;102473.84;;;-0.26;100.00
25759;BME280;13604;52.496;13.456;2024-01-30T00:45:30;102491.00;;;-0.18;100.00
25759;BME280;13604;52.496;13.456;2024-01-30T00:47:56;102476.41;;;-0.26;100.00
25759;BME280;13604;52.496;13.456;2024-01-30T00:50:21;102482.63;;;-0.24;100.00
25759;BME280;13604;52.496;13.456;2024-01-30T00:52:46;102452.50;;;-0.41;100.00
25759;BME280;13604;52.496;13.456;2024-01-30T00:55:12;102492.50;;;-0.27;100.00
25759;BME280;13604;52.496;13.456;2024-01-30T00:57:37;102477.88;;;-0.35;100.00
25759;BME280;13604;52.496;13.456;2024-01-30T01:00:03;102460.53;;;-0.45;100.00
25759;BME280;13604;52.496;13.456;2024-01-30T01:02:31;102464.03;;;-0.52;100.00
25759;BME280;13604;52.496;13.456;2024-01-30T01:04:56;102489.97;;;-0.34;100.00
25759;BME280;13604;52.496;13.456;2024-01-30T01:07:21;102474.63;;;-0.49;100.00
25759;BME280;13604;52.496;13.456;2024-01-30T01:09:47;102470.06;;;-0.51;100.00
25759;BME280;13604;52.496;13.456;2024-01-30T01:12:13;102449.63;;;-0.66;100.00
25759;BME280;13604;52.496;13.456;2024-01-30T01:14:38;102447.41;;;-0.63;100.00
25759;BME280;13604;52.496;13.456;2024-01-30T01:17:03;102472.63;;;-0.51;100.00
25759;BME280;13604;52.496;13.456;2024-01-30T01:19:29;102487.41;;;-0.42;100.00
25759;BME280;13604;52.496;13.456;2024-01-30T01:21:54;102485.22;;;-0.39;100.00
25759;BME280;13604;52.496;13.456;2024-01-30T01:24:19;102471.53;;;-0.53;100.00
25759;BME280;13604;52.496;13.456;2024-01-30T01:26:45;102490.19;;;-0.47;100.00
25759;BME280;13604;52.496;13.456;2024-01-30T01:29:10;102486.13;;;-0.45;100.00
25759;BME280;13604;52.496;13.456;2024-01-30T01:31:38;102484.50;;;-0.52;100.00
25759;BME280;13604;52.496;13.456;2024-01-30T01:34:11;102473.19;;;-0.61;100.00
25759;BME280;13604;52.496;13.456;2024-01-30T01:36:36;102482.31;;;-0.56;100.00
25759;BME280;13604;52.496;13.456;2024-01-30T01:39:01;102462.78;;;-0.70;100.00
25759;BME280;13604;52.496;13.456;2024-01-30T01:41:31;102497.13;;;-0.53;100.00
25759;BME280;13604;52.496;13.456;2024-01-30T01:43:57;102473.38;;;-0.60;100.00
25759;BME280;13604;52.496;13.456;2024-01-30T01:46:23;102457.50;;;-0.71;100.00
25759;BME280;13604;52.496;13.456;2024-01-30T01:48:48;102456.56;;;-0.79;100.00
25759;BME280;13604;52.496;13.456;2024-01-30T01:51:14;102444.53;;;-0.80;100.00
25759;BME280;13604;52.496;13.456;2024-01-30T01:53:40;102466.63;;;-0.73;100.00
25759;BME280;13604;52.496;13.456;2024-01-30T01:56:06;102491.31;;;-0.67;100.00
25759;BME280;13604;52.496;13.456;2024-01-30T01:58:31;102482.16;;;-0.79;100.00
25759;BME280;13604;52.496;13.456;2024-01-30T02:00:58;102465.34;;;-0.84;100.00
25759;BME280;13604;52.496;13.456;2024-01-30T02:03:24;102463.91;;;-0.82;100.00
25759;BME280;13604;52.496;13.456;2024-01-30T02:05:53;102462.44;;;-0.87;100.00
25759;BME280;13604;52.496;13.456;2024-01-30T02:08:20;102476.31;;;-0.71;100.00
25759;BME280;13604;52.496;13.456;2024-01-30T02:10:45;102476.13;;;-0.80;100.00
25759;BME280;13604;52.496;13.456;2024-01-30T02:13:10;102487.09;;;-0.73;100.00
25759;BME280;13604;52.496;13.456;2024-01-30T02:15:36;102452.19;;;-0.87;100.00
25759;BME280;13604;52.496;13.456;2024-01-30T02:18:01;102485.81;;;-0.70;100.00
25759;BME280;13604;52.496;13.456;2024-01-30T02:20:29;102459.34;;;-0.85;100.00
25759;BME280;13604;52.496;13.456;2024-01-30T02:22:55;102467.19;;;-0.76;100.00
25759;BME280;13604;52.496;13.456;2024-01-30T02:25:41;102487.25;;;-0.65;100.00
25759;BME280;13604;52.496;13.456;2024-01-30T02:28:13;102464.97;;;-0.73;100.00
25759;BME280;13604;52.496;13.456;2024-01-30T02:30:45;102476.47;;;-0.69;100.00
25759;BME280;13604;52.496;13.456;2024-01-30T02:33:11;102476.13;;;-0.65;100.00
25759;BME280;13604;52.496;13.456;2024-01-30T02:35:36;102447.09;;;-0.87;100.00
25759;BME280;13604;52.496;13.456;2024-01-30T02:38:01;102473.94;;;-0.69;100.00
25759;BME280;13604;52.496;13.456;2024-01-30T02:40:27;102473.56;;;-0.65;100.00
25759;BME280;13604;52.496;13.456;2024-01-30T02:42:52;102439.44;;;-0.80;100.00
25759;BME280;13604;52.496;13.456;2024-01-30T02:45:17;102464.09;;;-0.73;100.00
25759;BME280;13604;52.496;13.456;2024-01-30T02:47:43;102459.69;;;-0.75;100.00
25759;BME280;13604;52.496;13.456;2024-01-30T02:50:08;102452.56;;;-0.70;100.00
25759;BME280;13604;52.496;13.456;2024-01-30T02:52:34;102446.53;;;-0.78;100.00
25759;BME280;13604;52.496;13.456;2024-01-30T02:54:59;102418.44;;;-0.92;100.00
25759;BME280;13604;52.496;13.456;2024-01-30T02:57:25;102426.63;;;-0.87;100.00
25759;BME280;13604;52.496;13.456;2024-01-30T02:59:50;102428.06;;;-0.75;100.00
25759;BME280;13604;52.496;13.456;2024-01-30T03:02:15;102460.38;;;-0.61;100.00
25759;BME280;13604;52.496;13.456;2024-01-30T03:04:41;102464.59;;;-0.62;100.00
25759;BME280;13604;52.496;13.456;2024-01-30T03:07:07;102458.22;;;-0.65;100.00
25759;BME280;13604;52.496;13.456;2024-01-30T03:09:32;102461.50;;;-0.66;100.00
25759;BME280;13604;52.496;13.456;2024-01-30T03:11:57;102458.03;;;-0.67;100.00
25759;BME280;13604;52.496;13.456;2024-01-30T03:14:23;102452.56;;;-0.70;100.00
25759;BME280;13604;52.496;13.456;2024-01-30T03:16:48;102430.81;;;-0.81;100.00
25759;BME280;13604;52.496;13.456;2024-01-30T03:19:13;102455.47;;;-0.67;100.00
25759;BME280;13604;52.496;13.456;2024-01-30T03:21:38;102445.97;;;-0.68;100.00
25759;BME280;13604;52.496;13.456;2024-01-30T03:24:04;102410.19;;;-0.89;100.00
25759;BME280;13604;52.496;13.456;2024-01-30T03:26:29;102452.91;;;-0.67;100.00
25759;BME280;13604;52.496;13.456;2024-01-30T03:28:54;102456.00;;;-0.69;100.00
25759;BME280;13604;52.496;13.456;2024-01-30T03:31:20;102452.72;;;-0.68;100.00
25759;BME280;13604;52.496;13.456;2024-01-30T03:33:45;102447.44;;;-0.70;100.00
25759;BME280;13604;52.496;13.456;2024-01-30T03:36:10;102441.41;;;-0.78;100.00
25759;BME280;13604;52.496;13.456;2024-01-30T03:38:36;102453.28;;;-0.71;100.00
25759;BME280;13604;52.496;13.456;2024-01-30T03:41:01;102430.81;;;-0.81;100.00
25759;BME280;13604;52.496;13.456;2024-01-30T03:43:27;102459.69;;;-0.75;100.00
25759;BME280;13604;52.496;13.456;2024-01-30T03:45:52;102427.72;;;-0.93;100.00
25759;BME280;13604;52.496;13.456;2024-01-30T03:48:18;102437.25;;;-0.91;100.00
25759;BME280;13604;52.496;13.456;2024-01-30T03:50:43;102444.34;;;-0.89;100.00
25759;BME280;13604;52.496;13.456;2024-01-30T03:53:08;102415.31;;;-1.04;100.00
25759;BME280;13604;52.496;13.456;2024-01-30T03:55:34;102402.94;;;-1.15;100.00
25759;BME280;13604;52.496;13.456;2024-01-30T03:57:59;102444.72;;;-0.86;100.00
25759;BME280;13604;52.496;13.456;2024-01-30T04:00:25;102424.09;;;-0.95;100.00
25759;BME280;13604;52.496;13.456;2024-01-30T04:02:50;102393.97;;;-1.12;100.00
25759;BME280;13604;52.496;13.456;2024-01-30T04:05:16;102438.47;;;-0.81;100.00
25759;BME280;13604;52.496;13.456;2024-01-30T04:07:42;102418.59;;;-0.98;100.00
25759;BME280;13604;52.496;13.456;2024-01-30T04:10:08;102455.50;;;-0.81;100.00
25759;BME280;13604;52.496;13.456;2024-01-30T04:12:33;102432.31;;;-0.90;100.00
25759;BME280;13604;52.496;13.456;2024-01-30T04:14:58;102417.88;;;-1.04;100.00
25759;BME280;13604;52.496;13.456;2024-01-30T04:17:24;102422.09;;;-1.04;100.00
25759;BME280;13604;52.496;13.456;2024-01-30T04:19:49;102445.09;;;-0.90;100.00
25759;BME280;13604;52.496;13.456;2024-01-30T04:22:14;102448.91;;;-0.86;100.00
25759;BME280;13604;52.496;13.456;2024-01-30T04:24:39;102433.59;;;-1.01;100.00
25759;BME280;13604;52.496;13.456;2024-01-30T04:27:05;102450.56;;;-0.94;100.00
25759;BME280;13604;52.496;13.456;2024-01-30T04:29:30;102410.94;;;-1.12;100.00
25759;BME280;13604;52.496;13.456;2024-01-30T04:31:57;102426.47;;;-1.03;100.00
25759;BME280;13604;52.496;13.456;2024-01-30T04:34:22;102419.38;;;-1.13;100.00
25759;BME280;13604;52.496;13.456;2024-01-30T04:36:47;102454.78;;;-0.95;100.00
25759;BME280;13604;52.496;13.456;2024-01-30T04:39:13;102442.91;;;-1.01;100.00
25759;BME280;13604;52.496;13.456;2024-01-30T04:41:38;102425.53;;;-1.04;100.00
25759;BME280;13604;52.496;13.456;2024-01-30T04:44:03;102440.91;;;-0.97;100.00
25759;BME280;13604;52.496;13.456;2024-01-30T04:46:29;102441.81;;;-0.96;100.00
25759;BME280;13604;52.496;13.456;2024-01-30T04:48:54;102428.47;;;-1.01;100.00
25759;BME280;13604;52.496;13.456;2024-01-30T04:51:19;102420.06;;;-1.00;100.00
25759;BME280;13604;52.496;13.456;2024-01-30T04:53:45;102413.50;;;-1.05;100.00
25759;BME280;13604;52.496;13.456;2024-01-30T04:56:10;102422.63;;;-1.00;100.00
25759;BME280;13604;52.496;13.456;2024-01-30T04:58:35;102418.59;;;-0.98;100.00
25759;BME280;13604;52.496;13.456;2024-01-30T05:01:02;102423.38;;;-0.94;100.00
25759;BME280;13604;52.496;13.456;2024-01-30T05:03:27;102409.28;;;-0.97;100.00
25759;BME280;13604;52.496;13.456;2024-01-30T05:05:52;102429.19;;;-0.87;100.00
25759;BME280;13604;52.496;13.456;2024-01-30T05:08:17;102404.38;;;-1.03;100.00
25759;BME280;13604;52.496;13.456;2024-01-30T05:10:43;102440.53;;;-0.85;100.00
25759;BME280;13604;52.496;13.456;2024-01-30T05:13:08;102429.91;;;-0.96;100.00
25759;BME280;13604;52.496;13.456;2024-01-30T05:15:33;102440.91;;;-0.97;100.00
25759;BME280;13604;52.496;13.456;2024-01-30T05:17:58;102435.03;;;-0.96;100.00
25759;BME280;13604;52.496;13.456;2024-01-30T05:20:24;102430.66;;;-1.04;100.00
25759;BME280;13604;52.496;13.456;2024-01-30T05:22:52;102435.78;;;-0.97;100.00
25759;BME280;13604;52.496;13.456;2024-01-30T05:25:18;102398.00;;;-1.21;100.00
25759;BME280;13604;52.496;13.456;2024-01-30T05:27:44;102408.22;;;-1.21;100.00
25759;BME280;13604;52.496;13.456;2024-01-30T05:30:09;102412.41;;;-1.14;100.00
25759;BME280;13604;52.496;13.456;2024-01-30T05:32:35;102434.34;;;-1.02;100.00
25759;BME280;13604;52.496;13.456;2024-01-30T05:35:00;102436.53;;;-1.05;100.00
25759;BME280;13604;52.496;13.456;2024-01-30T05:37:26;102402.56;;;-1.25;100.00
25759;BME280;13604;52.496;13.456;2024-01-30T05:39:51;102436.91;;;-1.02;100.00
25759;BME280;13604;52.496;13.456;2024-01-30T05:42:16;102410.25;;;-1.18;100.00
25759;BME280;13604;52.496;13.456;2024-01-30T05:44:42;102399.25;;;-1.17;100.00
25759;BME280;13604;52.496;13.456;2024-01-30T05:47:07;102395.97;;;-1.16;100.00
25759;BME280;13604;52.496;13.456;2024-01-30T05:49:32;102400.53;;;-1.14;100.00
25759;BME280;13604;52.496;13.456;2024-01-30T05:51:58;102420.78;;;-1.01;100.00
25759;BME280;13604;52.496;13.456;2024-01-30T05:54:23;102416.63;;;-1.00;100.00
25759;BME280;13604;52.496;13.456;2024-01-30T05:56:48;102401.47;;;-1.13;100.00
25759;BME280;13604;52.496;13.456;2024-01-30T05:59:14;102435.25;;;-1.01;100.00
25759;BME280;13604;52.496;13.456;2024-01-30T06:01:48;102429.19;;;-0.95;100.00
25759;BME280;13604;52.496;13.456;2024-01-30T06:04:14;102427.53;;;-0.94;100.00
25759;BME280;13604;52.496;13.456;2024-01-30T06:06:39;102433.41;;;-0.95;100.00
25759;BME280;13604;52.496;13.456;2024-01-30T06:09:05;102430.09;;;-0.94;100.00
25759;BME280;13604;52.496;13.456;2024-01-30T06:11:30;102431.03;;;-0.94;100.00
25759;BME280;13604;52.496;13.456;2024-01-30T06:13:56;102423.56;;;-0.92;100.00
25759;BME280;13604;52.496;13.456;2024-01-30T06:16:21;102401.84;;;-1.10;100.00
25759;BME280;13604;52.496;13.456;2024-01-30T06:18:47;102411.84;;;-1.04;100.00
25759;BME280;13604;52.496;13.456;2024-01-30T06:21:13;102410.94;;;-1.05;100.00
25759;BME280;13604;52.496;13.456;2024-01-30T06:23:38;102423.72;;;-0.90;100.00
25759;BME280;13604;52.496;13.456;2024-01-30T06:26:04;102418.06;;;-0.95;100.00
25759;BME280;13604;52.496;13.456;2024-01-30T06:28:30;102412.94;;;-1.02;100.00
25759;BME280;13604;52.496;13.456;2024-01-30T06:30:55;102424.28;;;-1.00;100.00
25759;BME280;13604;52.496;13.456;2024-01-30T06:33:20;102421.91;;;-1.06;100.00
25759;BME280;13604;52.496;13.456;2024-01-30T06:35:46;102403.84;;;-1.15;100.00
25759;BME280;13604;52.496;13.456;2024-01-30T06:38:11;102385.59;;;-1.25;100.00
25759;BME280;13604;52.496;13.456;2024-01-30T06:40:36;102381.75;;;-1.21;100.00
25759;BME280;13604;52.496;13.456;2024-01-30T06:43:03;102378.28;;;-1.15;100.00
25759;BME280;13604;52.496;13.456;2024-01-30T06:45:29;102416.97;;;-0.90;100.00
25759;BME280;13604;52.496;13.456;2024-01-30T06:47:54;102385.56;;;-1.03;100.00
25759;BME280;13604;52.496;13.456;2024-01-30T06:50:19;102422.44;;;-0.87;100.00
25759;BME280;13604;52.496;13.456;2024-01-30T06:52:45;102404.72;;;-1.00;100.00
25759;BME280;13604;52.496;13.456;2024-01-30T06:55:10;102384.63;;;-1.04;100.00
25759;BME280;13604;52.496;13.456;2024-01-30T06:57:36;102420.22;;;-0.77;100.00
25759;BME280;13604;52.496;13.456;2024-01-30T07:00:02;102397.56;;;-0.81;100.00
25759;BME280;13604;52.496;13.456;2024-01-30T07:02:27;102397.38;;;-0.75;100.00
25759;BME280;13604;52.496;13.456;2024-01-30T07:04:53;102402.28;;;-0.69;100.00
25759;BME280;13604;52.496;13.456;2024-01-30T07:07:21;102386.75;;;-0.71;100.00
25759;BME280;13604;52.496;13.456;2024-01-30T07:09:46;102431.47;;;-0.53;100.00
25759;BME280;13604;52.496;13.456;2024-01-30T07:12:14;102396.59;;;-0.60;100.00
25759;BME280;13604;52.496;13.456;2024-01-30T07:14:40;102395.69;;;-0.60;100.00
25759;BME280;13604;52.496;13.456;2024-01-30T07:17:05;102419.97;;;-0.49;100.00
25759;BME280;13604;52.496;13.456;2024-01-30T07:19:31;102429.97;;;-0.37;100.00
25759;BME280;13604;52.496;13.456;2024-01-30T07:21:56;102417.22;;;-0.44;100.00
25759;BME280;13604;52.496;13.456;2024-01-30T07:24:21;102384.69;;;-0.52;100.00
25759;BME280;13604;52.496;13.456;2024-01-30T07:26:47;102427.59;;;-0.28;100.00
25759;BME280;13604;52.496;13.456;2024-01-30T07:29:12;102395.06;;;-0.36;100.00
25759;BME280;13604;52.496;13.456;2024-01-30T07:31:38;102403.38;;;-0.15;100.00
25759;BME280;13604;52.496;13.456;2024-01-30T07:34:03;102401.47;;;-0.02;100.00
25759;BME280;13604;52.496;13.456;2024-01-30T07:36:28;102389.59;;;-0.02;100.00
25759;BME280;13604;52.496;13.456;2024-01-30T07:38:54;102406.28;;;0.18;100.00
25759;BME280;13604;52.496;13.456;2024-01-30T07:41:22;102413.16;;;0.33;100.00
25759;BME280;13604;52.496;13.456;2024-01-30T07:43:50;102385.53;;;0.31;100.00
25759;BME280;13604;52.496;13.456;2024-01-30T07:46:15;102404.97;;;0.52;100.00
25759;BME280;13604;52.496;13.456;2024-01-30T07:48:40;102383.41;;;0.43;100.00
25759;BME280;13604;52.496;13.456;2024-01-30T07:51:06;102402.41;;;0.52;100.00
25759;BME280;13604;52.496;13.456;2024-01-30T07:53:31;102409.66;;;0.63;100.00
25759;BME280;13604;52.496;13.456;2024-01-30T07:55:56;102399.03;;;0.60;100.00
25759;BME280;13604;52.496;13.456;2024-01-30T07:58:21;102405.22;;;0.69;100.00
25759;BME280;13604;52.496;13.456;2024-01-30T08:00:48;102398.41;;;0.70;100.00
25759;BME280;13604;52.496;13.456;2024-01-30T08:03:14;102371.09;;;0.70;100.00
25759;BME280;13604;52.496;13.456;2024-01-30T08:05:44;102364.81;;;0.76;100.00
25759;BME280;13604;52.496;13.456;2024-01-30T08:08:09;102401.34;;;1.12;100.00
25759;BME280;13604;52.496;13.456;2024-01-30T08:10:34;102379.22;;;1.05;100.00
25759;BME280;13604;52.496;13.456;2024-01-30T08:13:00;102404.06;;;1.29;100.00
25759;BME280;13604;52.496;13.456;2024-01-30T08:15:25;102380.06;;;1.29;100.00
25759;BME280;13604;52.496;13.456;2024-01-30T08:17:50;102372.09;;;1.35;100.00
25759;BME280;13604;52.496;13.456;2024-01-30T08:20:24;102375.91;;;1.54;100.00
25759;BME280;13604;52.496;13.456;2024-01-30T08:22:50;102402.31;;;1.85;100.00
25759;BME280;13604;52.496;13.456;2024-01-30T08:25:15;102383.97;;;1.98;99.93
25759;BME280;13604;52.496;13.456;2024-01-30T08:27:40;102378.03;;;2.15;98.66
25759;BME280;13604;52.496;13.456;2024-01-30T08:30:06;102362.44;;;2.13;97.17
25759;BME280;13604;52.496;13.456;2024-01-30T08:32:32;102391.22;;;2.43;96.56
25759;BME280;13604;52.496;13.456;2024-01-30T08:34:57;102362.50;;;2.47;96.25
25759;BME280;13604;52.496;13.456;2024-01-30T08:37:23;102390.13;;;2.65;93.29
25759;BME280;13604;52.496;13.456;2024-01-30T08:39:48;102386.84;;;2.75;93.38
25759;BME280;13604;52.496;13.456;2024-01-30T08:42:14;102350.59;;;2.65;92.38
25759;BME280;13604;52.496;13.456;2024-01-30T08:44:39;102387.66;;;3.00;91.94
25759;BME280;13604;52.496;13.456;2024-01-30T08:47:04;102365.75;;;3.12;91.00
25759;BME280;13604;52.496;13.456;2024-01-30T08:49:30;102383.63;;;3.20;88.00
25759;BME280;13604;52.496;13.456;2024-01-30T08:51:55;102373.81;;;3.42;87.94
25759;BME280;13604;52.496;13.456;2024-01-30T08:54:20;102361.88;;;3.68;87.61
25759;BME280;13604;52.496;13.456;2024-01-30T08:56:46;102360.59;;;4.09;85.74
25759;BME280;13604;52.496;13.456;2024-01-30T08:59:11;102349.88;;;4.49;83.00
25759;BME280;13604;52.496;13.456;2024-01-30T09:01:37;102357.56;;;4.94;81.49
25759;BME280;13604;52.496;13.456;2024-01-30T09:04:02;102341.81;;;5.10;76.59
25759;BME280;13604;52.496;13.456;2024-01-30T09:06:27;102363.91;;;5.64;74.80
25759;BME280;13604;52.496;13.456;2024-01-30T09:08:54;102371.56;;;5.92;71.35
25759;BME280;13604;52.496;13.456;2024-01-30T09:11:19;102363.84;;;6.11;70.74
25759;BME280;13604;52.496;13.456;2024-01-30T09:13:44;102365.50;;;6.10;69.03
25759;BME280;13604;52.496;13.456;2024-01-30T09:16:09;102345.31;;;6.06;68.47
25759;BME280;13604;52.496;13.456;2024-01-30T09:18:35;102347.53;;;6.12;68.33
25759;BME280;13604;52.496;13.456;2024-01-30T09:21:00;102380.16;;;6.20;67.46
25759;BME280;13604;52.496;13.456;2024-01-30T09:23:27;102364.72;;;6.11;66.86
25759;BME280;13604;52.496;13.456;2024-01-30T09:25:52;102377.06;;;5.76;67.77
25759;BME280;13604;52.496;13.456;2024-01-30T09:28:18;102372.16;;;5.41;68.96
25759;BME280;13604;52.496;13.456;2024-01-30T09:30:43;102364.03;;;5.65;69.02
25759;BME280;13604;52.496;13.456;2024-01-30T09:33:09;102379.09;;;5.69;67.89
25759;BME280;13604;52.496;13.456;2024-01-30T09:35:35;102372.28;;;5.23;68.54
25759;BME280;13604;52.496;13.456;2024-01-30T09:38:01;102355.72;;;5.21;69.08
25759;BME280;13604;52.496;13.456;2024-01-30T09:40:26;102359.22;;;5.41;68.95
25759;BME280;13604;52.496;13.456;2024-01-30T09:42:53;102360.94;;;5.59;68.67
25759;BME280;13604;52.496;13.456;2024-01-30T09:45:19;102369.03;;;5.72;67.96
25759;BME280;13604;52.496;13.456;2024-01-30T09:47:45;102365.00;;;6.14;66.78
25759;BME280;13604;52.496;13.456;2024-01-30T09:50:12;102362.59;;;6.26;65.12
25759;BME280;13604;52.496;13.456;2024-01-30T09:52:38;102368.34;;;6.42;65.42
25759;BME280;13604;52.496;13.456;2024-01-30T09:55:04;102378.06;;;6.85;64.16
25759;BME280;13604;52.496;13.456;2024-01-30T09:57:29;102361.50;;;7.24;62.53
25759;BME280;13604;52.496;13.456;2024-01-30T09:59:54;102368.09;;;7.41;60.75
25759;BME280;13604;52.496;13.456;2024-01-30T10:02:20;102324.94;;;7.41;59.78
25759;BME280;13604;52.496;13.456;2024-01-30T10:04:50;102366.59;;;7.85;58.50
25759;BME280;13604;52.496;13.456;2024-01-30T10:07:18;102359.69;;;8.28;56.68
25759;BME280;13604;52.496;13.456;2024-01-30T10:09:44;102354.72;;;8.86;56.23
25759;BME280;13604;52.496;13.456;2024-01-30T10:12:10;102335.31;;;8.93;54.24
25759;BME280;13604;52.496;13.456;2024-01-30T10:14:39;102341.72;;;8.42;54.74
25759;BME280;13604;52.496;13.456;2024-01-30T10:17:04;102355.94;;;8.79;54.32
25759;BME280;13604;52.496;13.456;2024-01-30T10:19:30;102332.53;;;8.68;54.43
25759;BME280;13604;52.496;13.456;2024-01-30T10:21:56;102331.19;;;8.73;54.25
25759;BME280;13604;52.496;13.456;2024-01-30T10:24:25;102336.19;;;9.15;52.83
25759;BME280;13604;52.496;13.456;2024-01-30T10:26:50;102341.34;;;9.37;52.37
25759;BME280;13604;52.496;13.456;2024-01-30T10:29:17;102347.41;;;9.26;52.20
25759;BME280;13604;52.496;13.456;2024-01-30T10:31:42;102312.69;;;9.14;52.27
25759;BME280;13604;52.496;13.456;2024-01-30T10:34:07;102336.47;;;9.42;52.05
25759;BME280;13604;52.496;13.456;2024-01-30T10:36:39;102329.03;;;9.01;52.29
25759;BME280;13604;52.496;13.456;2024-01-30T10:39:06;102314.41;;;8.57;52.74
25759;BME280;13604;52.496;13.456;2024-01-30T10:41:43;102318.47;;;8.54;53.63
25759;BME280;13604;52.496;13.456;2024-01-30T10:44:09;102322.38;;;8.48;53.57
25759;BME280;13604;52.496;13.456;2024-01-30T10:46:37;102332.34;;;8.22;53.91
25759;BME280;13604;52.496;13.456;2024-01-30T10:49:04;102337.97;;;8.16;53.87
25759;BME280;13604;52.496;13.456;2024-01-30T10:51:31;102312.72;;;8.03;54.10
25759;BME280;13604;52.496;13.456;2024-01-30T10:53:56;102332.03;;;8.07;53.43
25759;BME280;13604;52.496;13.456;2024-01-30T10:56:22;102332.19;;;7.98;53.28
25759;BME280;13604;52.496;13.456;2024-01-30T10:58:50;102327.09;;;8.32;53.00
25759;BME280;13604;52.496;13.456;2024-01-30T11:01:16;102310.03;;;8.68;51.63
25759;BME280;13604;52.496;13.456;2024-01-30T11:03:42;102326.69;;;8.70;51.53
25759;BME280;13604;52.496;13.456;2024-01-30T11:06:11;102325.56;;;8.34;51.58
25759;BME280;13604;52.496;13.456;2024-01-30T11:08:37;102306.81;;;9.05;49.75
25759;BME280;13604;52.496;13.456;2024-01-30T11:11:08;102324.63;;;9.57;48.64
25759;BME280;13604;52.496;13.456;2024-01-30T11:13:34;102325.97;;;9.76;47.94
25759;BME280;13604;52.496;13.456;2024-01-30T11:16:01;102329.94;;;9.59;48.21
25759;BME280;13604;52.496;13.456;2024-01-30T11:18:29;102329.00;;;9.47;48.21
25759;BME280;13604;52.496;13.456;2024-01-30T11:21:01;102309.50;;;8.50;50.25
25759;BME280;13604;52.496;13.456;2024-01-30T11:23:28;102302.66;;;8.51;51.08
25759;BME280;13604;52.496;13.456;2024-01-30T11:25:54;102324.06;;;8.16;51.58
25759;BME280;13604;52.496;13.456;2024-01-30T11:28:21;102295.13;;;7.89;52.68
25759;BME280;13604;52.496;13.456;2024-01-30T11:30:47;102315.25;;;8.14;52.77
25759;BME280;13604;52.496;13.456;2024-01-30T11:33:13;102303.44;;;8.39;52.34
25759;BME280;13604;52.496;13.456;2024-01-30T11:38:06;102317.78;;;8.24;52.93
25759;BME280;13604;52.496;13.456;2024-01-30T11:40:32;102319.88;;;8.28;53.78
25759;BME280;13604;52.496;13.456;2024-01-30T11:43:00;102311.50;;;8.42;52.48
25759;BME280;13604;52.496;13.456;2024-01-30T11:45:26;102317.06;;;8.69;53.27
25759;BME280;13604;52.496;13.456;2024-01-30T11:47:52;102289.09;;;8.77;51.57
25759;BME280;13604;52.496;13.456;2024-01-30T11:50:18;102291.53;;;8.63;52.60
25759;BME280;13604;52.496;13.456;2024-01-30T11:52:43;102319.03;;;8.83;52.07
25759;BME280;13604;52.496;13.456;2024-01-30T11:55:09;102312.69;;;9.14;51.62
25759;BME280;13604;52.496;13.456;2024-01-30T11:57:35;102314.84;;;9.19;50.79
25759;BME280;13604;52.496;13.456;2024-01-30T12:00:05;102312.06;;;9.52;50.30
25759;BME280;13604;52.496;13.456;2024-01-30T12:02:35;102288.88;;;9.43;50.37
25759;BME280;13604;52.496;13.456;2024-01-30T12:05:05;102286.06;;;8.94;51.14
25759;BME280;13604;52.496;13.456;2024-01-30T12:07:30;102290.66;;;9.32;50.41
25759;BME280;13604;52.496;13.456;2024-01-30T12:09:56;102298.63;;;9.57;50.25
25759;BME280;13604;52.496;13.456;2024-01-30T12:12:26;102286.63;;;9.36;50.39
25759;BME280;13604;52.496;13.456;2024-01-30T12:14:51;102296.78;;;9.80;50.80
25759;BME280;13604;52.496;13.456;2024-01-30T12:17:31;102295.03;;;10.16;49.15
25759;BME280;13604;52.496;13.456;2024-01-30T12:20:06;102287.75;;;10.73;48.62
25759;BME280;13604;52.496;13.456;2024-01-30T12:22:36;102272.63;;;10.55;47.33
25759;BME280;13604;52.496;13.456;2024-01-30T12:25:05;102283.91;;;10.93;46.75
25759;BME280;13604;52.496;13.456;2024-01-30T12:27:30;102280.50;;;10.43;47.89
25759;BME280;13604;52.496;13.456;2024-01-30T12:29:57;102277.69;;;9.68;49.74
25759;BME280;13604;52.496;13.456;2024-01-30T12:32:23;102271.44;;;9.89;49.81
25759;BME280;13604;52.496;13.456;2024-01-30T12:34:48;102270.66;;;9.90;49.59